createdAt,value
2022-10-07T00:02:12.956Z,97615.50
2022-10-07T00:04:45.342Z,97611.31
2022-10-07T00:07:15.224Z,97604.63
2022-10-07T00:09:44.374Z,97608.84
2022-10-07T00:12:13.246Z,97613.75
2022-10-07T00:14:43.570Z,97603.53
2022-10-07T00:17:12.493Z,97610.63
2022-10-07T00:19:40.993Z,97600.22
2022-10-07T00:22:10.145Z,97589.88
2022-10-07T00:24:39.086Z,97601.13
2022-10-07T00:27:07.930Z,97599.00
2022-10-07T00:29:36.419Z,97599.22
2022-10-07T00:32:07.043Z,97592.59
2022-10-07T00:34:35.560Z,97589.25
2022-10-07T00:37:04.217Z,97592.81
2022-10-07T00:39:32.938Z,97587.47
2022-10-07T00:42:01.727Z,97584.13
2022-10-07T00:44:40.615Z,97589.56
2022-10-07T00:47:25.130Z,97573.25
2022-10-07T00:49:57.928Z,97569.69
2022-10-07T00:52:29.586Z,97568.22
2022-10-07T00:55:01.466Z,97568.88
2022-10-07T00:57:32.283Z,97566.00
2022-10-07T01:00:02.523Z,97554.75
2022-10-07T01:02:32.380Z,97563.72
2022-10-07T01:05:03.801Z,97563.34
2022-10-07T01:07:32.696Z,97557.75
2022-10-07T01:10:01.729Z,97550.88
2022-10-07T01:12:42.561Z,97550.69
2022-10-07T01:15:19.329Z,97546.28
2022-10-07T01:17:54.987Z,97545.06
2022-10-07T01:20:31.652Z,97534.88
2022-10-07T01:23:20.233Z,97532.38
2022-10-07T01:26:05.101Z,97533.81
2022-10-07T01:28:40.791Z,97538.22
2022-10-07T01:31:13.389Z,97532.97
2022-10-07T01:33:44.487Z,97531.97
2022-10-07T01:36:17.365Z,97528.38
2022-10-07T01:39:02.358Z,97524.00
2022-10-07T01:41:32.463Z,97514.91
2022-10-07T01:44:03.469Z,97516.56
2022-10-07T01:46:34.268Z,97514.19
2022-10-07T01:49:04.083Z,97513.38
2022-10-07T01:51:37.131Z,97513.16
2022-10-07T01:54:19.856Z,97508.53
2022-10-07T01:57:03.080Z,97516.16
2022-10-07T02:00:01.824Z,97505.75
2022-10-07T02:03:11.115Z,97506.03
2022-10-07T02:05:50.911Z,97499.38
2022-10-07T02:08:31.199Z,97499.38
2022-10-07T02:11:11.721Z,97488.97
2022-10-07T02:13:55.879Z,97491.06
2022-10-07T02:16:33.683Z,97494.19
2022-10-07T02:19:05.558Z,97490.63
2022-10-07T02:21:37.907Z,97486.03
2022-10-07T02:24:09.710Z,97489.88
2022-10-07T02:26:41.729Z,97486.56
2022-10-07T02:29:14.387Z,97481.13
2022-10-07T02:31:47.610Z,97480.66
2022-10-07T02:34:20.429Z,97479.00
2022-10-07T02:36:58.984Z,97476.53
2022-10-07T02:39:29.922Z,97472.81
2022-10-07T02:42:05.527Z,97476.97
2022-10-07T02:44:42.202Z,97479.06
2022-10-07T02:47:19.416Z,97465.94
2022-10-07T02:49:53.193Z,97464.28
2022-10-07T02:52:24.894Z,97460.97
2022-10-07T02:54:58.956Z,97457.41
2022-10-07T02:57:34.227Z,97461.25
2022-10-07T03:00:07.373Z,97461.66
2022-10-07T03:02:49.466Z,97455.38
2022-10-07T03:05:19.709Z,97452.66
2022-10-07T03:07:52.872Z,97451.88
2022-10-07T03:10:22.542Z,97449.19
2022-10-07T03:12:51.238Z,97460.81
2022-10-07T03:15:20.597Z,97454.59
2022-10-07T03:17:50.796Z,97451.97
2022-10-07T03:20:19.632Z,97448.84
2022-10-07T03:22:48.398Z,97447.19
2022-10-07T03:25:19.863Z,97439.66
2022-10-07T03:27:48.666Z,97444.03
2022-10-07T03:30:24.573Z,97444.44
2022-10-07T03:32:55.646Z,97446.09
2022-10-07T03:35:24.596Z,97442.09
2022-10-07T03:37:54.544Z,97443.59
2022-10-07T03:40:23.526Z,97444.81
2022-10-07T03:42:52.920Z,97440.16
2022-10-07T03:45:21.389Z,97438.72
2022-10-07T03:47:49.865Z,97438.72
2022-10-07T03:50:20.130Z,97428.44
2022-10-07T03:52:48.486Z,97428.84
2022-10-07T03:55:17.965Z,97424.44
2022-10-07T03:57:58.408Z,97433.66
2022-10-07T04:00:30.389Z,97431.41
2022-10-07T04:02:59.785Z,97436.06
2022-10-07T04:05:30.097Z,97429.03
2022-10-07T04:07:58.756Z,97424.00
2022-10-07T04:10:28.443Z,97424.75
2022-10-07T04:12:57.038Z,97418.97
2022-10-07T04:15:26.243Z,97420.03
2022-10-07T04:17:58.528Z,97429.16
2022-10-07T04:20:28.534Z,97412.72
2022-10-07T04:22:58.531Z,97419.56
2022-10-07T04:25:37.091Z,97412.44
2022-10-07T04:28:17.618Z,97410.28
2022-10-07T04:30:51.567Z,97414.47
2022-10-07T04:33:25.366Z,97402.16
2022-10-07T04:35:56.322Z,97400.03
2022-10-07T04:38:28.494Z,97391.06
2022-10-07T04:41:04.982Z,97389.88
2022-10-07T04:43:34.810Z,97392.75
2022-10-07T04:46:11.222Z,97396.50
2022-10-07T04:48:45.560Z,97405.69
2022-10-07T04:51:17.814Z,97401.56
2022-10-07T04:53:56.780Z,97391.84
2022-10-07T04:56:35.294Z,97396.22
2022-10-07T04:59:06.479Z,97382.88
2022-10-07T05:01:36.961Z,97377.00
2022-10-07T05:04:05.679Z,97380.47
2022-10-07T05:06:35.074Z,97386.56
2022-10-07T05:09:05.927Z,97379.84
2022-10-07T05:11:38.242Z,97381.28
2022-10-07T05:14:13.198Z,97382.31
2022-10-07T05:16:42.903Z,97387.75
2022-10-07T05:19:11.384Z,97380.28
2022-10-07T05:21:40.837Z,97388.63
2022-10-07T05:24:11.741Z,97387.56
2022-10-07T05:26:41.546Z,97388.63
2022-10-07T05:29:10.877Z,97388.25
2022-10-07T05:31:45.552Z,97378.66
2022-10-07T05:34:17.403Z,97385.53
2022-10-07T05:36:47.467Z,97379.03
2022-10-07T05:39:17.249Z,97379.66
2022-10-07T05:41:52.605Z,97376.78
2022-10-07T05:44:26.425Z,97377.00
2022-10-07T05:46:58.312Z,97378.28
2022-10-07T05:49:27.855Z,97388.31
2022-10-07T05:51:57.377Z,97379.69
2022-10-07T05:54:27.157Z,97388.22
2022-10-07T05:56:57.890Z,97379.41
2022-10-07T05:59:27.362Z,97379.50
2022-10-07T06:02:00.145Z,97390.78
2022-10-07T06:04:29.770Z,97388.31
2022-10-07T06:06:58.196Z,97386.41
2022-10-07T06:09:45.717Z,97386.59
2022-10-07T06:12:35.238Z,97379.88
2022-10-07T06:15:10.180Z,97374.91
2022-10-07T06:17:45.680Z,97374.50
2022-10-07T06:20:17.537Z,97370.97
2022-10-07T06:22:47.031Z,97374.50
2022-10-07T06:25:19.171Z,97376.56
2022-10-07T06:27:53.820Z,97376.94
2022-10-07T06:30:23.094Z,97379.84
2022-10-07T06:32:52.159Z,97375.00
2022-10-07T06:35:20.711Z,97377.97
2022-10-07T06:37:51.616Z,97378.56
2022-10-07T06:40:22.093Z,97380.38
2022-10-07T06:42:50.911Z,97376.31
2022-10-07T06:45:43.149Z,97382.13
2022-10-07T06:48:13.463Z,97377.91
2022-10-07T06:50:50.860Z,97382.00
2022-10-07T06:53:19.831Z,97375.03
2022-10-07T06:55:51.635Z,97371.59
2022-10-07T06:58:23.049Z,97371.75
2022-10-07T07:00:53.023Z,97376.38
2022-10-07T07:03:24.677Z,97371.69
2022-10-07T07:05:55.002Z,97378.94
2022-10-07T07:08:29.482Z,97377.22
2022-10-07T07:11:03.658Z,97380.88
2022-10-07T07:13:32.731Z,97375.97
2022-10-07T07:16:01.736Z,97375.66
2022-10-07T07:18:34.652Z,97382.06
2022-10-07T07:21:04.874Z,97377.94
2022-10-07T07:23:34.232Z,97384.00
2022-10-07T07:26:04.432Z,97384.28
2022-10-07T07:28:33.725Z,97379.56
2022-10-07T07:31:09.921Z,97379.81
2022-10-07T07:33:40.182Z,97384.72
2022-10-07T07:36:16.716Z,97384.94
2022-10-07T07:38:52.706Z,97383.50
2022-10-07T07:41:25.737Z,97382.47
2022-10-07T07:43:56.399Z,97381.53
2022-10-07T07:46:27.417Z,97383.88
2022-10-07T07:48:58.849Z,97385.41
2022-10-07T07:51:28.139Z,97381.75
2022-10-07T07:53:58.377Z,97387.88
2022-10-07T07:56:31.849Z,97387.19
2022-10-07T07:59:01.594Z,97383.84
2022-10-07T08:01:32.111Z,97387.19
2022-10-07T08:04:01.527Z,97382.69
2022-10-07T08:06:31.508Z,97384.72
2022-10-07T08:09:01.948Z,97383.50
2022-10-07T08:11:33.290Z,97379.38
2022-10-07T08:14:04.165Z,97382.44
2022-10-07T08:16:36.790Z,97374.63
2022-10-07T08:19:06.882Z,97386.13
2022-10-07T08:21:35.285Z,97386.16
2022-10-07T08:24:08.659Z,97374.88
2022-10-07T08:26:41.011Z,97383.63
2022-10-07T08:29:14.026Z,97384.25
2022-10-07T08:31:43.439Z,97380.00
2022-10-07T08:34:12.966Z,97374.19
2022-10-07T08:36:44.088Z,97376.06
2022-10-07T08:39:12.785Z,97367.31
2022-10-07T08:41:50.318Z,97375.25
2022-10-07T08:44:24.565Z,97368.75
2022-10-07T08:47:11.987Z,97366.03
2022-10-07T08:49:53.895Z,97363.19
2022-10-07T08:52:41.662Z,97364.34
2022-10-07T08:55:18.638Z,97361.25
2022-10-07T08:58:14.055Z,97358.16
2022-10-07T09:00:50.493Z,97360.63
2022-10-07T09:03:27.944Z,97353.91
2022-10-07T09:05:59.530Z,97350.91
2022-10-07T09:08:33.319Z,97353.00
2022-10-07T09:11:15.747Z,97347.28
2022-10-07T09:13:49.739Z,97345.63
2022-10-07T09:16:24.293Z,97338.25
2022-10-07T09:18:56.117Z,97328.00
2022-10-07T09:21:34.138Z,97320.41
2022-10-07T09:24:16.919Z,97324.53
2022-10-07T09:26:46.858Z,97323.41
2022-10-07T09:29:20.389Z,97322.44
2022-10-07T09:31:49.795Z,97323.72
2022-10-07T09:34:22.397Z,97328.03
2022-10-07T09:37:23.144Z,97320.94
2022-10-07T09:39:54.596Z,97320.25
2022-10-07T09:42:35.223Z,97324.31
2022-10-07T09:45:20.035Z,97325.16
2022-10-07T09:47:52.661Z,97322.91
2022-10-07T09:50:34.590Z,97326.69
2022-10-07T09:53:03.222Z,97328.69
2022-10-07T09:55:38.186Z,97323.56
2022-10-07T09:58:17.601Z,97319.78
2022-10-07T10:00:49.746Z,97317.63
2022-10-07T10:03:19.836Z,97316.41
2022-10-07T10:05:55.553Z,97310.59
2022-10-07T10:08:28.695Z,97314.09
2022-10-07T10:10:58.725Z,97319.63
2022-10-07T10:13:33.054Z,97316.22
2022-10-07T10:16:05.121Z,97316.22
2022-10-07T10:18:37.145Z,97314.00
2022-10-07T10:21:22.064Z,97309.84
2022-10-07T10:23:52.674Z,97310.09
2022-10-07T10:26:33.924Z,97303.09
2022-10-07T10:29:14.243Z,97298.28
2022-10-07T10:32:02.660Z,97300.13
2022-10-07T10:34:43.125Z,97302.44
2022-10-07T10:37:19.051Z,97289.44
2022-10-07T10:39:58.620Z,97283.94
2022-10-07T10:42:36.975Z,97288.03
2022-10-07T10:45:18.695Z,97280.41
2022-10-07T10:48:03.806Z,97278.31
2022-10-07T10:50:41.585Z,97283.69
2022-10-07T10:53:24.630Z,97276.13
2022-10-07T10:56:08.656Z,97277.66
2022-10-07T10:58:53.734Z,97280.84
2022-10-07T11:01:31.634Z,97275.38
2022-10-07T11:04:30.606Z,97266.34
2022-10-07T11:07:02.810Z,97262.91
2022-10-07T11:09:40.015Z,97264.22
2022-10-07T11:12:22.325Z,97265.75
2022-10-07T11:14:58.211Z,97254.63
2022-10-07T11:17:32.425Z,97257.25
2022-10-07T11:20:13.831Z,97257.44
2022-10-07T11:22:49.554Z,97261.69
2022-10-07T11:25:28.676Z,97257.56
2022-10-07T11:28:07.179Z,97247.72
2022-10-07T11:30:44.061Z,97238.75
2022-10-07T11:33:19.085Z,97238.47
2022-10-07T11:35:55.212Z,97231.34
2022-10-07T11:38:29.006Z,97229.44
2022-10-07T11:41:02.456Z,97221.75
2022-10-07T11:43:35.651Z,97224.69
2022-10-07T11:46:11.708Z,97222.16
2022-10-07T11:48:46.750Z,97223.44
2022-10-07T11:51:23.547Z,97216.91
2022-10-07T11:53:55.515Z,97215.78
2022-10-07T11:56:27.047Z,97205.69
2022-10-07T11:59:01.971Z,97207.13
2022-10-07T12:01:48.785Z,97210.63
2022-10-07T12:04:38.687Z,97209.09
2022-10-07T12:07:49.786Z,97197.19
2022-10-07T12:10:26.990Z,97195.19
2022-10-07T12:12:58.626Z,97183.84
2022-10-07T12:15:35.052Z,97183.31
2022-10-07T12:18:28.266Z,97179.97
2022-10-07T12:21:09.686Z,97178.50
2022-10-07T12:24:11.335Z,97174.66
2022-10-07T12:26:47.391Z,97174.84
2022-10-07T12:29:35.496Z,97151.91
2022-10-07T12:32:05.318Z,97157.69
2022-10-07T12:34:43.406Z,97166.66
2022-10-07T12:37:50.554Z,97154.59
2022-10-07T12:40:25.741Z,97151.63
2022-10-07T12:43:06.389Z,97151.00
2022-10-07T12:45:37.059Z,97148.56
2022-10-07T12:48:06.427Z,97141.25
2022-10-07T12:50:35.050Z,97140.91
2022-10-07T12:53:04.980Z,97136.16
2022-10-07T12:55:38.495Z,97131.91
2022-10-07T12:58:46.048Z,97128.75
2022-10-07T13:01:23.079Z,97134.50
2022-10-07T13:04:17.058Z,97120.88
2022-10-07T13:07:39.210Z,97127.00
2022-10-07T13:10:33.136Z,97122.94
2022-10-07T13:13:06.028Z,97114.97
2022-10-07T13:15:44.291Z,97111.19
2022-10-07T13:18:20.957Z,97106.38
2022-10-07T13:21:12.523Z,97104.00
2022-10-07T13:23:41.018Z,97095.84
2022-10-07T13:26:14.606Z,97093.06
2022-10-07T13:28:48.247Z,97090.56
2022-10-07T13:31:22.030Z,97092.84
2022-10-07T13:33:51.513Z,97080.19
2022-10-07T13:36:22.995Z,97085.63
2022-10-07T13:38:54.042Z,97089.16
2022-10-07T13:41:27.579Z,97083.19
2022-10-07T13:44:00.355Z,97087.75
2022-10-07T13:46:32.868Z,97078.19
2022-10-07T13:49:02.592Z,97081.13
2022-10-07T13:51:34.641Z,97081.13
2022-10-07T13:54:05.986Z,97077.59
2022-10-07T13:56:38.903Z,97067.38
2022-10-07T13:59:08.019Z,97067.53
2022-10-07T14:01:41.064Z,97056.69
2022-10-07T14:04:16.206Z,97068.28
2022-10-07T14:06:55.987Z,97049.47
2022-10-07T14:09:44.931Z,97046.41
2022-10-07T14:12:16.938Z,97039.13
2022-10-07T14:14:49.359Z,97043.50
2022-10-07T14:17:28.540Z,97037.28
2022-10-07T14:20:01.540Z,97028.69
2022-10-07T14:22:35.067Z,97028.16
2022-10-07T14:25:05.818Z,97030.09
2022-10-07T14:28:11.818Z,97022.44
2022-10-07T14:30:59.753Z,97024.09
2022-10-07T14:33:59.047Z,97022.13
2022-10-07T14:36:28.196Z,97019.91
2022-10-07T14:38:59.889Z,97010.38
2022-10-07T14:41:29.995Z,96998.69
2022-10-07T14:44:00.522Z,97015.91
2022-10-07T14:46:29.712Z,97003.66
2022-10-07T14:48:59.693Z,97002.81
2022-10-07T14:51:30.150Z,96997.13
2022-10-07T14:54:02.948Z,96999.66
2022-10-07T14:56:33.547Z,97001.81
2022-10-07T14:59:02.871Z,96990.00
2022-10-07T15:01:31.308Z,96992.34
2022-10-07T15:04:01.871Z,96992.00
2022-10-07T15:06:30.919Z,96991.31
2022-10-07T15:08:59.933Z,96988.72
2022-10-07T15:11:29.117Z,96994.69
2022-10-07T15:13:58.250Z,96991.56
2022-10-07T15:16:28.802Z,96979.53
2022-10-07T15:18:58.309Z,96977.28
2022-10-07T15:21:29.370Z,96973.41
2022-10-07T15:23:58.102Z,96970.53
2022-10-07T15:26:26.456Z,96963.59
2022-10-07T15:28:57.843Z,96962.56
2022-10-07T15:31:28.265Z,96965.44
2022-10-07T15:33:58.207Z,96967.19
2022-10-07T15:36:30.063Z,96961.47
2022-10-07T15:39:02.437Z,96965.72
2022-10-07T15:41:34.203Z,96965.59
2022-10-07T15:44:04.372Z,96968.34
2022-10-07T15:46:33.476Z,96961.28
2022-10-07T15:49:03.554Z,96957.69
2022-10-07T15:51:35.571Z,96969.56
2022-10-07T15:54:04.295Z,96958.97
2022-10-07T15:56:34.022Z,96943.91
2022-10-07T15:59:02.554Z,96953.63
2022-10-07T16:01:32.845Z,96958.47
2022-10-07T16:04:03.406Z,96951.66
2022-10-07T16:06:36.951Z,96959.56
2022-10-07T16:09:06.522Z,96944.06
2022-10-07T16:11:35.948Z,96954.44
2022-10-07T16:14:04.436Z,96956.03
2022-10-07T16:16:33.926Z,96954.56
2022-10-07T16:19:02.566Z,96950.59
2022-10-07T16:21:34.726Z,96944.44
2022-10-07T16:24:05.187Z,96944.72
2022-10-07T16:26:35.857Z,96940.44
2022-10-07T16:29:23.966Z,96937.25
2022-10-07T16:31:58.343Z,96938.75
2022-10-07T16:34:28.857Z,96941.34
2022-10-07T16:36:59.689Z,96942.25
2022-10-07T16:39:28.594Z,96937.41
2022-10-07T16:41:58.198Z,96943.94
2022-10-07T16:44:28.152Z,96942.84
2022-10-07T16:46:58.549Z,96948.13
2022-10-07T16:49:29.551Z,96947.66
2022-10-07T16:51:59.591Z,96941.69
2022-10-07T16:54:30.334Z,96948.94
2022-10-07T16:56:59.212Z,96941.59
2022-10-07T16:59:27.608Z,96942.47
2022-10-07T17:02:00.497Z,96946.03
2022-10-07T17:04:29.159Z,96943.91
2022-10-07T17:06:59.031Z,96953.78
2022-10-07T17:09:27.380Z,96945.59
2022-10-07T17:11:57.176Z,96956.28
2022-10-07T17:14:26.412Z,96960.38
2022-10-07T17:16:58.233Z,96955.72
2022-10-07T17:19:29.392Z,96948.59
2022-10-07T17:21:59.622Z,96950.81
2022-10-07T17:24:28.833Z,96953.59
2022-10-07T17:26:57.241Z,96956.59
2022-10-07T17:29:26.914Z,96956.88
2022-10-07T17:31:56.063Z,96951.66
2022-10-07T17:34:24.419Z,96951.38
2022-10-07T17:36:54.241Z,96952.75
2022-10-07T17:39:24.662Z,96948.38
2022-10-07T17:41:53.035Z,96945.63
2022-10-07T17:44:22.310Z,96949.16
2022-10-07T17:46:51.047Z,96955.50
2022-10-07T17:49:21.228Z,96946.72
2022-10-07T17:51:49.761Z,96950.22
2022-10-07T17:54:18.719Z,96951.59
2022-10-07T17:56:48.434Z,96949.66
2022-10-07T17:59:17.517Z,96930.75
2022-10-07T18:01:46.091Z,96944.41
2022-10-07T18:04:22.543Z,96942.75
2022-10-07T18:06:54.406Z,96946.84
2022-10-07T18:09:24.418Z,96955.31
2022-10-07T18:12:11.881Z,96953.59
2022-10-07T18:14:58.264Z,96941.00
2022-10-07T18:17:27.278Z,96946.78
2022-10-07T18:19:57.270Z,96937.72
2022-10-07T18:22:25.637Z,96931.41
2022-10-07T18:24:57.072Z,96934.38
2022-10-07T18:27:27.782Z,96938.22
2022-10-07T18:29:56.743Z,96931.13
2022-10-07T18:32:25.770Z,96926.97
2022-10-07T18:34:54.228Z,96935.19
2022-10-07T18:37:24.286Z,96923.91
2022-10-07T18:39:52.837Z,96924.78
2022-10-07T18:42:21.733Z,96927.00
2022-10-07T18:44:52.431Z,96926.97
2022-10-07T18:47:21.016Z,96917.66
2022-10-07T18:49:49.834Z,96916.25
2022-10-07T18:52:19.037Z,96919.31
2022-10-07T18:54:47.872Z,96906.16
2022-10-07T18:57:16.623Z,96903.41
2022-10-07T18:59:45.065Z,96901.44
2022-10-07T19:02:15.735Z,96915.88
2022-10-07T19:04:44.139Z,96907.06
2022-10-07T19:07:13.454Z,96913.84
2022-10-07T19:09:42.264Z,96914.88
2022-10-07T19:12:30.991Z,96908.50
2022-10-07T19:14:58.382Z,96907.91
2022-10-07T19:17:29.283Z,96899.44
2022-10-07T19:20:02.033Z,96905.66
2022-10-07T19:22:30.493Z,96915.78
2022-10-07T19:25:17.081Z,96918.56
2022-10-07T19:27:45.694Z,96921.63
2022-10-07T19:30:14.464Z,96917.28
2022-10-07T19:32:44.904Z,96920.78
2022-10-07T19:35:13.643Z,96917.78
2022-10-07T19:37:42.404Z,96913.59
2022-10-07T19:40:11.438Z,96923.38
2022-10-07T19:42:40.695Z,96916.53
2022-10-07T19:45:10.458Z,96919.22
2022-10-07T19:47:39.123Z,96921.59
2022-10-07T19:50:09.788Z,96916.28
2022-10-07T19:52:38.702Z,96923.72
2022-10-07T19:55:08.183Z,96923.44
2022-10-07T19:57:37.390Z,96925.91
2022-10-07T20:00:06.795Z,96934.41
2022-10-07T20:02:40.785Z,96922.84
2022-10-07T20:05:10.668Z,96923.34
2022-10-07T20:07:40.134Z,96921.84
2022-10-07T20:10:09.103Z,96920.75
2022-10-07T20:12:39.337Z,96915.84
2022-10-07T20:15:09.341Z,96923.44
2022-10-07T20:17:38.823Z,96922.09
2022-10-07T20:20:08.232Z,96920.66
2022-10-07T20:22:39.294Z,96916.69
2022-10-07T20:25:09.051Z,96915.56
2022-10-07T20:27:37.427Z,96912.53
2022-10-07T20:30:17.826Z,96908.91
2022-10-07T20:32:46.687Z,96904.53
2022-10-07T20:35:15.283Z,96903.13
2022-10-07T20:37:45.015Z,96880.28
2022-10-07T20:40:31.189Z,96909.25
2022-10-07T20:43:00.802Z,96912.03
2022-10-07T20:45:29.177Z,96909.63
2022-10-07T20:47:59.545Z,96906.91
2022-10-07T20:50:28.296Z,96915.84
2022-10-07T20:52:58.140Z,96918.56
2022-10-07T20:55:26.538Z,96911.47
2022-10-07T20:57:54.934Z,96908.69
2022-10-07T21:00:24.162Z,96905.47
2022-10-07T21:02:52.602Z,96900.00
2022-10-07T21:05:21.412Z,96896.84
2022-10-07T21:07:54.514Z,96902.84
2022-10-07T21:10:24.675Z,96899.88
2022-10-07T21:12:53.910Z,96890.81
2022-10-07T21:15:22.698Z,96886.81
2022-10-07T21:17:51.050Z,96885.34
2022-10-07T21:20:20.534Z,96874.16
2022-10-07T21:22:49.886Z,96872.78
2022-10-07T21:25:18.261Z,96879.19
2022-10-07T21:27:48.542Z,96877.28
2022-10-07T21:30:17.078Z,96873.97
2022-10-07T21:32:47.111Z,96874.91
2022-10-07T21:35:16.717Z,96880.94
2022-10-07T21:37:46.243Z,96875.81
2022-10-07T21:40:14.947Z,96871.19
2022-10-07T21:42:43.685Z,96875.75
2022-10-07T21:45:15.379Z,96880.13
2022-10-07T21:47:43.838Z,96882.00
2022-10-07T21:50:13.674Z,96879.84
2022-10-07T21:52:44.385Z,96867.75
2022-10-07T21:55:13.830Z,96868.09
2022-10-07T21:57:42.586Z,96874.63
2022-10-07T22:00:12.943Z,96859.63
2022-10-07T22:02:43.019Z,96865.56
2022-10-07T22:05:14.664Z,96868.88
2022-10-07T22:08:00.760Z,96868.28
2022-10-07T22:10:30.078Z,96861.97
2022-10-07T22:12:59.091Z,96865.94
2022-10-07T22:15:27.776Z,96866.59
2022-10-07T22:17:57.549Z,96867.47
2022-10-07T22:20:26.753Z,96866.06
2022-10-07T22:22:59.742Z,96861.38
2022-10-07T22:25:28.545Z,96865.69
2022-10-07T22:27:57.309Z,96869.31
2022-10-07T22:30:25.772Z,96867.72
2022-10-07T22:32:55.182Z,96856.25
2022-10-07T22:35:33.666Z,96856.84
2022-10-07T22:38:02.871Z,96856.75
2022-10-07T22:40:32.015Z,96857.25
2022-10-07T22:43:00.365Z,96851.91
2022-10-07T22:45:29.449Z,96849.50
2022-10-07T22:47:57.857Z,96850.00
2022-10-07T22:50:27.863Z,96844.31
2022-10-07T22:52:56.751Z,96843.97
2022-10-07T22:55:26.494Z,96848.84
2022-10-07T22:57:55.187Z,96847.09
2022-10-07T23:00:23.541Z,96854.47
2022-10-07T23:02:54.410Z,96856.53
2022-10-07T23:05:23.426Z,96852.00
2022-10-07T23:07:53.225Z,96847.00
2022-10-07T23:10:22.648Z,96838.66
2022-10-07T23:12:51.035Z,96831.63
2022-10-07T23:15:20.032Z,96829.94
2022-10-07T23:17:48.494Z,96827.44
2022-10-07T23:20:16.963Z,96839.31
2022-10-07T23:22:47.432Z,96837.75
2022-10-07T23:25:17.565Z,96828.75
2022-10-07T23:27:46.840Z,96830.16
2022-10-07T23:30:15.247Z,96831.22
2022-10-07T23:32:46.160Z,96836.66
2022-10-07T23:35:14.882Z,96833.22
2022-10-07T23:37:44.825Z,96831.56
2022-10-07T23:40:13.205Z,96826.28
2022-10-07T23:42:42.959Z,96840.47
2022-10-07T23:45:13.276Z,96833.50
2022-10-07T23:47:43.511Z,96829.50
2022-10-07T23:50:13.050Z,96831.31
2022-10-07T23:52:41.752Z,96826.22
2022-10-07T23:55:12.116Z,96819.53
2022-10-07T23:57:41.349Z,96826.31
